Time;durP1;ratioP1;P1;durP2;ratioP2;P2;SDS_P1;SDS_P2;PMS_P1;PMS_P2;Temp;Humidity;BMP_temperature;BMP_pressure;BME280_temperature;BME280_humidity;BME280_pressure;Samples;Min_cycle;Max_cycle;Signal;HPM_P1;HPM_P2
2023/04/26 00:00:08;;;;;;;11.40;3.80;;;;;;;10.54;56.29;98357.27;223575;183;137007;-69
2023/04/26 00:05:33;;;;;;;10.50;4.10;;;;;;;10.55;56.23;98361.86;223525;184;148174;-69
2023/04/26 00:10:39;;;;;;;6.90;3.80;;;;;;;10.53;56.22;98372.60;223436;184;138273;-69
2023/04/26 00:15:42;;;;;;;7.80;3.90;;;;;;;10.54;56.11;98380.88;223499;183;137135;-69
2023/04/26 00:20:46;;;;;;;10.50;3.90;;;;;;;10.54;55.92;98377.14;223391;183;147353;-68
2023/04/26 00:25:49;;;;;;;10.20;3.90;;;;;;;10.53;55.58;98379.00;222284;184;138270;-68
2023/04/26 00:30:53;;;;;;;10.50;4.10;;;;;;;10.51;55.46;98391.04;222142;184;138516;-68
2023/04/26 00:35:56;;;;;;;11.50;4.00;;;;;;;10.53;55.52;98389.66;223541;184;147491;-68
2023/04/26 00:40:59;;;;;;;9.40;3.60;;;;;;;10.54;55.36;98392.81;223569;183;139040;-68
2023/04/26 00:46:04;;;;;;;9.90;3.80;;;;;;;10.51;55.12;98393.68;223520;184;137289;-69
2023/04/26 00:51:08;;;;;;;11.20;4.30;;;;;;;10.46;54.75;98395.98;223494;184;147599;-68
2023/04/26 00:56:12;;;;;;;6.60;3.10;;;;;;;10.46;54.70;98394.59;223124;184;138323;-68
2023/04/26 01:01:15;;;;;;;9.10;3.10;;;;;;;10.48;54.09;98391.30;223604;184;137292;-67
2023/04/26 01:06:21;;;;;;;11.50;2.90;;;;;;;10.44;53.42;98394.36;223712;184;147752;-68
2023/04/26 01:11:25;;;;;;;9.10;3.40;;;;;;;10.38;52.81;98392.18;223476;184;138448;-70
2023/04/26 01:16:29;;;;;;;10.50;3.20;;;;;;;10.30;52.39;98402.48;223419;184;137078;-70
2023/04/26 01:21:33;;;;;;;9.30;3.10;;;;;;;10.29;52.41;98414.42;223497;183;147130;-70
2023/04/26 01:26:44;;;;;;;9.50;2.90;;;;;;;10.19;52.29;98417.90;223443;184;138597;-70
2023/04/26 01:31:49;;;;;;;10.00;3.00;;;;;;;10.12;52.26;98429.57;223471;183;137399;-69
2023/04/26 01:36:53;;;;;;;9.90;3.00;;;;;;;9.99;51.48;98431.71;222059;184;148100;-69
2023/04/26 01:41:57;;;;;;;13.50;3.40;;;;;;;9.89;51.20;98434.52;223519;184;139489;-69
2023/04/26 01:47:00;;;;;;;8.60;2.90;;;;;;;9.87;50.55;98439.81;223514;183;136958;-69
2023/04/26 01:52:04;;;;;;;6.80;2.90;;;;;;;9.85;50.38;98443.89;223416;184;148059;-69
2023/04/26 01:57:07;;;;;;;5.90;2.60;;;;;;;9.84;50.15;98445.39;223432;184;141521;-69
2023/04/26 02:02:10;;;;;;;10.00;2.60;;;;;;;9.77;49.97;98451.56;223483;183;137416;-69
2023/04/26 02:07:14;;;;;;;7.00;3.00;;;;;;;9.71;49.84;98454.73;223483;184;147435;-68
2023/04/26 02:12:20;;;;;;;13.50;3.00;;;;;;;9.62;49.89;98459.80;223244;184;140573;-69
2023/04/26 02:17:25;;;;;;;10.10;2.70;;;;;;;9.55;49.57;98457.10;223595;184;137421;-68
2023/04/26 02:22:29;;;;;;;7.00;2.30;;;;;;;9.51;49.28;98461.98;223635;183;148139;-68
2023/04/26 02:27:32;;;;;;;8.00;2.40;;;;;;;9.43;49.25;98467.42;223616;184;142545;-68
2023/04/26 02:32:35;;;;;;;12.00;2.80;;;;;;;9.37;49.21;98472.65;223581;184;136906;-68
2023/04/26 02:37:39;;;;;;;9.40;3.10;;;;;;;9.35;49.39;98472.95;223369;184;147955;-68
2023/04/26 02:42:43;;;;;;;7.20;2.10;;;;;;;9.32;49.62;98469.20;223479;184;138806;-68
2023/04/26 02:47:46;;;;;;;12.70;3.20;;;;;;;9.24;49.73;98472.77;223560;184;137488;-70
2023/04/26 02:52:50;;;;;;;9.10;2.90;;;;;;;9.18;49.94;98473.15;223469;184;147304;-67
2023/04/26 02:57:54;;;;;;;8.20;2.90;;;;;;;9.13;50.22;98476.11;223524;184;139191;-68
2023/04/26 03:03:01;;;;;;;11.20;2.80;;;;;;;9.07;50.37;98483.41;223462;184;136696;-68
2023/04/26 03:08:06;;;;;;;13.10;3.10;;;;;;;9.03;50.50;98484.95;223512;184;147982;-68
2023/04/26 03:13:09;;;;;;;8.30;2.80;;;;;;;8.97;50.74;98487.62;223443;184;138507;-69
2023/04/26 03:18:13;;;;;;;10.50;3.10;;;;;;;8.93;51.01;98490.16;223528;183;136379;-68
2023/04/26 03:23:17;;;;;;;8.00;3.10;;;;;;;8.86;51.17;98497.15;223594;184;149008;-69
2023/04/26 03:28:21;;;;;;;8.70;3.00;;;;;;;8.82;51.30;98502.59;223449;184;138976;-68
2023/04/26 03:33:24;;;;;;;8.70;3.50;;;;;;;8.81;51.69;98506.89;223596;184;137327;-68
2023/04/26 03:38:28;;;;;;;9.30;3.30;;;;;;;8.73;51.77;98510.91;223461;184;148130;-67
2023/04/26 03:43:31;;;;;;;10.50;3.20;;;;;;;8.69;51.98;98520.17;223470;185;138213;-67
2023/04/26 03:48:35;;;;;;;11.00;3.40;;;;;;;8.67;52.16;98527.36;223496;184;141257;-67
2023/04/26 03:53:38;;;;;;;11.70;3.40;;;;;;;8.62;52.33;98530.65;223467;184;147236;-67
2023/04/26 03:58:43;;;;;;;8.20;3.50;;;;;;;8.59;52.46;98534.42;223441;184;138913;-68
2023/04/26 04:03:47;;;;;;;13.70;4.10;;;;;;;8.56;52.82;98539.40;223634;183;136860;-68
2023/04/26 04:08:50;;;;;;;12.60;3.50;;;;;;;8.57;52.82;98547.83;223565;184;147559;-68
2023/04/26 04:13:54;;;;;;;10.30;4.00;;;;;;;8.53;52.90;98548.77;223446;184;139234;-69
2023/04/26 04:18:58;;;;;;;14.30;3.80;;;;;;;8.45;52.96;98554.00;223527;181;136742;-70
2023/04/26 04:24:02;;;;;;;13.30;3.80;;;;;;;8.40;53.09;98557.15;223631;184;147435;-69
2023/04/26 04:29:09;;;;;;;13.60;4.20;;;;;;;8.39;53.22;98560.77;223517;184;139552;-69
2023/04/26 04:34:13;;;;;;;12.50;4.00;;;;;;;8.36;53.23;98571.32;222957;183;136991;-70
2023/04/26 04:39:17;;;;;;;18.30;4.40;;;;;;;8.35;53.30;98576.72;223491;184;147960;-70
2023/04/26 04:44:22;;;;;;;16.20;4.50;;;;;;;8.34;53.25;98583.28;223428;184;140622;-71
2023/04/26 04:49:27;;;;;;;17.20;4.60;;;;;;;8.34;53.24;98586.48;223557;184;136712;-70
2023/04/26 04:54:31;;;;;;;11.00;4.30;;;;;;;8.31;53.01;98591.05;223674;184;146832;-71
2023/04/26 04:59:35;;;;;;;17.10;4.60;;;;;;;8.25;53.04;98593.52;223519;184;138792;-70
2023/04/26 05:04:39;;;;;;;26.80;14.50;;;;;;;8.23;53.66;98595.23;223514;184;137434;-70
2023/04/26 05:09:44;;;;;;;24.70;9.60;;;;;;;8.16;53.09;98600.42;223570;184;147410;-70
2023/04/26 05:14:48;;;;;;;12.80;4.80;;;;;;;8.13;53.76;98605.38;222029;184;138845;-71
2023/04/26 05:19:52;;;;;;;14.80;4.80;;;;;;;8.15;52.94;98609.17;223515;183;136912;-72
2023/04/26 05:24:55;;;;;;;15.30;5.30;;;;;;;8.18;52.88;98616.25;223487;184;147108;-72
2023/04/26 05:30:03;;;;;;;16.90;4.20;;;;;;;8.23;52.72;98618.21;223473;184;138407;-73
2023/04/26 05:35:25;;;;;;;13.20;4.00;;;;;;;8.21;52.63;98622.75;223559;183;136457;-72
2023/04/26 05:40:28;;;;;;;12.60;4.20;;;;;;;8.20;52.72;98627.39;223620;184;147511;-71
2023/04/26 05:45:32;;;;;;;10.90;3.50;;;;;;;8.22;52.58;98630.63;223360;184;138314;-70
2023/04/26 05:50:36;;;;;;;10.50;3.30;;;;;;;8.25;52.47;98626.09;223481;183;137121;-70
2023/04/26 05:55:44;;;;;;;11.80;6.30;;;;;;;8.29;52.19;98629.70;223504;184;147470;-70
2023/04/26 06:00:47;;;;;;;12.20;3.90;;;;;;;8.37;51.41;98624.83;223385;184;139215;-70
2023/04/26 06:05:52;;;;;;;9.90;3.30;;;;;;;8.55;51.05;98627.82;223462;184;136775;-71
2023/04/26 06:10:57;;;;;;;8.30;2.50;;;;;;;8.72;51.08;98628.71;223421;183;147415;-71
2023/04/26 06:16:02;;;;;;;7.80;2.50;;;;;;;8.86;50.29;98625.60;223604;184;139008;-72
2023/04/26 06:21:05;;;;;;;7.70;2.30;;;;;;;8.94;49.61;98628.25;223520;184;139629;-70
2023/04/26 06:26:09;;;;;;;6.30;2.30;;;;;;;9.07;49.25;98631.00;223429;184;147029;-71
2023/04/26 06:31:14;;;;;;;6.70;1.80;;;;;;;9.18;48.74;98635.65;223520;184;138804;-73
2023/04/26 06:36:17;;;;;;;6.80;2.20;;;;;;;9.23;48.18;98626.83;223400;184;136847;-72
2023/04/26 06:41:21;;;;;;;11.30;4.60;;;;;;;9.33;48.09;98623.37;223526;184;147288;-72
2023/04/26 06:46:24;;;;;;;7.20;2.40;;;;;;;9.42;47.83;98625.23;223472;184;138691;-69
2023/04/26 06:51:30;;;;;;;8.50;2.60;;;;;;;9.53;47.71;98631.27;223469;184;136785;-70
2023/04/26 06:56:33;;;;;;;6.20;1.90;;;;;;;9.66;47.12;98638.77;223435;184;147493;-70
2023/04/26 07:01:37;;;;;;;10.80;2.20;;;;;;;9.71;46.64;98644.81;222796;184;138880;-71
2023/04/26 07:06:41;;;;;;;3.90;1.70;;;;;;;9.74;46.70;98644.96;223564;183;137365;-71
2023/04/26 07:11:46;;;;;;;6.20;1.80;;;;;;;9.80;46.23;98647.58;223574;184;147434;-71
2023/04/26 07:16:50;;;;;;;6.60;2.20;;;;;;;9.84;45.68;98648.75;223575;183;138947;-81
2023/04/26 07:21:53;;;;;;;4.50;1.80;;;;;;;9.92;45.77;98646.24;223465;184;136600;-72
2023/04/26 07:26:56;;;;;;;7.10;1.50;;;;;;;10.10;44.66;98648.27;223630;183;147432;-72
2023/04/26 07:32:00;;;;;;;8.60;1.70;;;;;;;10.15;44.18;98640.66;223592;184;138486;-72
2023/04/26 07:37:04;;;;;;;9.30;1.80;;;;;;;10.22;43.90;98645.70;223458;184;136623;-71
2023/04/26 07:42:07;;;;;;;8.10;1.60;;;;;;;10.22;43.40;98650.71;223401;184;147358;-71
2023/04/26 07:47:12;;;;;;;5.20;1.40;;;;;;;10.18;42.21;98651.47;223518;183;138968;-72
2023/04/26 07:52:16;;;;;;;31.20;19.40;;;;;;;10.18;41.77;98660.15;223210;184;137160;-72
2023/04/26 07:57:19;;;;;;;4.90;2.10;;;;;;;10.26;41.85;98664.59;223496;184;147297;-72
2023/04/26 08:02:23;;;;;;;9.00;1.50;;;;;;;10.45;41.81;98663.71;223558;184;139241;-70
2023/04/26 08:07:46;;;;;;;7.90;1.70;;;;;;;10.53;41.12;98665.67;223472;183;136774;-72
2023/04/26 08:12:49;;;;;;;3.80;1.20;;;;;;;10.61;40.30;98665.61;223464;184;147555;-72
2023/04/26 08:17:52;;;;;;;5.10;1.40;;;;;;;10.62;40.72;98668.60;223559;184;139115;-72
2023/04/26 08:22:56;;;;;;;5.40;1.60;;;;;;;10.68;40.15;98671.91;223437;184;136742;-71
2023/04/26 08:28:00;;;;;;;6.70;1.40;;;;;;;10.76;39.53;98675.12;223537;184;147320;-72
2023/04/26 08:33:04;;;;;;;4.30;1.60;;;;;;;10.82;39.37;98670.77;223397;184;138993;-72
2023/04/26 08:38:07;;;;;;;4.50;1.50;;;;;;;10.82;39.01;98670.19;223599;184;137860;-72
2023/04/26 08:43:16;;;;;;;7.10;1.80;;;;;;;10.90;39.15;98671.30;223479;184;147047;-72
2023/04/26 08:48:20;;;;;;;5.30;1.50;;;;;;;10.92;38.96;98674.48;223407;184;139126;-72
2023/04/26 08:53:24;;;;;;;8.30;1.60;;;;;;;10.94;39.44;98667.61;223450;184;137693;-72
2023/04/26 08:58:28;;;;;;;6.50;1.70;;;;;;;10.97;39.34;98668.15;223439;184;150044;-72
2023/04/26 09:03:32;;;;;;;4.70;1.60;;;;;;;11.04;39.06;98663.02;223397;184;139920;-72
2023/04/26 09:08:40;;;;;;;6.80;2.00;;;;;;;11.11;38.63;98662.87;223504;184;138946;-72
2023/04/26 09:13:43;;;;;;;4.90;1.60;;;;;;;11.20;38.90;98674.16;223517;181;146864;-71
2023/04/26 09:18:53;;;;;;;8.80;1.80;;;;;;;11.13;38.64;98676.21;223538;184;137708;-71
2023/04/26 09:24:05;;;;;;;7.80;2.00;;;;;;;11.16;38.84;98682.01;223469;184;137563;-72
2023/04/26 09:29:16;;;;;;;9.80;1.80;;;;;;;11.18;38.68;98696.33;223471;183;147162;-71
2023/04/26 09:34:20;;;;;;;4.70;1.60;;;;;;;10.95;40.63;98701.44;223444;183;139040;-71
2023/04/26 09:39:36;;;;;;;5.40;2.00;;;;;;;10.85;41.50;98691.45;223441;183;136687;-70
2023/04/26 09:44:39;;;;;;;9.00;2.10;;;;;;;11.04;41.87;98686.45;223466;183;147166;-71
2023/04/26 09:49:49;;;;;;;10.00;2.10;;;;;;;11.02;42.56;98703.64;223433;183;139638;-71
2023/04/26 09:54:53;;;;;;;6.30;1.60;;;;;;;10.87;43.31;98713.49;223572;184;139243;-70
2023/04/26 09:59:58;;;;;;;6.70;1.80;;;;;;;10.75;42.34;98701.55;223443;184;147584;-70
2023/04/26 10:05:03;;;;;;;4.70;1.60;;;;;;;10.81;40.72;98703.30;223162;184;138996;-71
2023/04/26 10:10:07;;;;;;;48.10;28.30;;;;;;;10.81;40.80;98705.63;223248;183;137549;-70
2023/04/26 10:15:11;;;;;;;9.00;2.20;;;;;;;10.82;41.59;98695.23;223379;187;147632;-70
2023/04/26 10:20:18;;;;;;;6.50;2.00;;;;;;;10.91;40.47;98692.84;223296;198;139002;-70
2023/04/26 10:25:35;;;;;;;6.50;1.90;;;;;;;11.08;39.96;98683.98;223318;206;138150;-70
2023/04/26 10:30:58;;;;;;;6.70;1.70;;;;;;;11.51;39.57;98676.73;223272;184;147467;-70
2023/04/26 10:36:12;;;;;;;6.50;2.10;;;;;;;11.95;39.02;98675.48;223301;195;141810;-71
2023/04/26 10:41:37;;;;;;;7.30;1.60;;;;;;;11.94;37.95;98682.00;223395;184;138491;-71
2023/04/26 10:46:41;;;;;;;4.20;1.10;;;;;;;11.84;37.16;98684.69;223410;184;147337;-70
2023/04/26 10:52:11;;;;;;;5.10;1.50;;;;;;;12.06;37.40;98699.58;223399;184;139598;-71
2023/04/26 10:57:16;;;;;;;6.20;1.70;;;;;;;12.09;38.58;98705.07;223490;184;136867;-71
2023/04/26 11:02:45;;;;;;;4.60;1.60;;;;;;;12.15;39.39;98707.33;223409;184;147530;-71
2023/04/26 11:08:23;;;;;;;4.10;1.60;;;;;;;12.47;39.17;98698.31;223418;184;138903;-71
2023/04/26 11:13:43;;;;;;;3.90;1.40;;;;;;;13.03;37.85;98691.21;223488;184;137268;-71
2023/04/26 11:18:47;;;;;;;9.60;3.90;;;;;;;13.20;35.19;98695.25;223445;184;147328;-70
2023/04/26 11:23:54;;;;;;;4.10;1.40;;;;;;;13.07;33.95;98697.30;223390;184;138999;-71
2023/04/26 11:28:57;;;;;;;4.40;1.40;;;;;;;13.07;34.22;98692.83;223473;184;137154;-71
2023/04/26 11:34:04;;;;;;;3.40;1.10;;;;;;;12.98;34.09;98700.35;223310;184;149086;-71
2023/04/26 11:39:07;;;;;;;3.80;1.20;;;;;;;12.66;35.44;98712.58;223336;184;138401;-70
2023/04/26 11:44:11;;;;;;;3.00;1.30;;;;;;;12.59;37.18;98712.15;223464;183;137208;-71
2023/04/26 11:49:16;;;;;;;2.30;1.10;;;;;;;12.84;38.73;98717.77;223475;183;147432;-71
2023/04/26 11:54:30;;;;;;;4.20;1.40;;;;;;;13.41;38.02;98713.52;223504;184;138535;-71
2023/04/26 11:59:34;;;;;;;4.70;1.50;;;;;;;13.80;36.09;98723.08;223442;184;137360;-71
2023/04/26 12:04:39;;;;;;;9.70;1.70;;;;;;;13.35;36.84;98733.95;223418;184;146863;-71
2023/04/26 12:09:44;;;;;;;8.40;1.40;;;;;;;12.83;38.42;98744.15;223348;184;138838;-70
2023/04/26 12:14:47;;;;;;;5.60;1.40;;;;;;;12.66;39.27;98737.34;223503;184;137152;-71
2023/04/26 12:19:51;;;;;;;4.50;1.10;;;;;;;13.12;38.64;98723.45;223550;184;147144;-71
2023/04/26 12:25:06;;;;;;;4.60;1.40;;;;;;;13.70;37.17;98720.67;223423;184;138791;-71
2023/04/26 12:30:10;;;;;;;2.60;1.20;;;;;;;14.00;34.45;98721.67;223582;183;137746;-70
2023/04/26 12:35:14;;;;;;;8.00;1.50;;;;;;;13.63;33.62;98726.92;223349;184;147914;-71
2023/04/26 12:40:19;;;;;;;3.80;1.30;;;;;;;13.27;35.73;98734.20;223295;184;139153;-71
2023/04/26 12:45:24;;;;;;;6.30;2.40;;;;;;;13.02;38.41;98747.69;223315;184;137383;-70
2023/04/26 12:50:45;;;;;;;4.40;1.50;;;;;;;13.05;39.16;98739.64;223438;184;148596;-70
2023/04/26 12:55:50;;;;;;;4.20;1.30;;;;;;;13.65;38.68;98734.30;223437;183;138877;-70
2023/04/26 13:00:53;;;;;;;4.00;1.50;;;;;;;14.07;36.02;98736.11;223416;184;137493;-70
2023/04/26 13:05:57;;;;;;;4.50;1.50;;;;;;;13.88;34.68;98736.35;223554;184;147082;-70
2023/04/26 13:11:01;;;;;;;5.40;1.30;;;;;;;13.70;33.70;98739.63;223513;184;141185;-70
2023/04/26 13:16:05;;;;;;;5.60;1.20;;;;;;;13.83;32.67;98745.64;223500;184;137031;-70
2023/04/26 13:21:08;;;;;;;3.10;1.20;;;;;;;13.76;31.72;98750.01;223529;184;147249;-70
2023/04/26 13:26:13;;;;;;;5.20;1.20;;;;;;;13.80;32.32;98751.48;223428;184;138369;-70
2023/04/26 13:31:18;;;;;;;3.90;1.20;;;;;;;13.75;32.50;98751.52;223504;183;137915;-70
2023/04/26 13:36:21;;;;;;;5.90;1.40;;;;;;;13.82;32.78;98750.61;223479;184;147284;-70
2023/04/26 13:41:25;;;;;;;4.80;1.30;;;;;;;14.20;31.31;98754.67;223427;183;138064;-69
2023/04/26 13:46:29;;;;;;;5.00;2.20;;;;;;;14.27;31.32;98756.05;223029;184;137295;-70
2023/04/26 13:51:33;;;;;;;4.30;1.40;;;;;;;14.32;31.72;98763.32;223514;183;147940;-73
2023/04/26 13:56:37;;;;;;;5.20;1.70;;;;;;;14.68;33.09;98757.65;223418;184;138772;-71
2023/04/26 14:01:41;;;;;;;3.90;1.40;;;;;;;15.08;31.64;98754.30;223473;184;137458;-71
2023/04/26 14:06:44;;;;;;;5.50;1.50;;;;;;;14.75;30.98;98766.70;223452;184;147136;-71
2023/04/26 14:11:48;;;;;;;6.30;1.60;;;;;;;14.37;31.91;98773.45;223413;184;138593;-71
2023/04/26 14:17:02;;;;;;;4.90;1.50;;;;;;;13.96;31.80;98781.03;223531;184;137146;-72
2023/04/26 14:22:08;;;;;;;5.00;1.40;;;;;;;13.73;31.42;98779.30;223381;184;147809;-72
2023/04/26 14:27:12;;;;;;;5.50;1.60;;;;;;;13.69;31.18;98770.48;223398;184;138337;-71
2023/04/26 14:32:15;;;;;;;3.60;0.90;;;;;;;13.56;31.15;98772.98;223402;184;136770;-71
2023/04/26 14:37:21;;;;;;;3.30;1.00;;;;;;;13.49;30.48;98774.06;223476;183;147250;-71
2023/04/26 14:42:24;;;;;;;;;;;;;;;13.51;30.05;98775.89;223448;184;139661;-71
2023/04/26 14:47:28;;;;;;;5.00;1.60;;;;;;;13.43;29.95;98777.14;223517;184;130892;-70
2023/04/26 14:52:34;;;;;;;3.00;1.10;;;;;;;13.26;30.16;98789.35;223464;184;147159;-71
2023/04/26 14:57:39;;;;;;;4.20;1.20;;;;;;;13.07;30.11;98795.76;223428;184;138403;-70
2023/04/26 15:02:44;;;;;;;4.30;0.90;;;;;;;12.90;30.27;98797.63;223442;181;137223;-71
2023/04/26 15:07:47;;;;;;;4.60;1.30;;;;;;;12.83;29.70;98794.77;223445;183;147104;-70
2023/04/26 15:12:51;;;;;;;5.00;1.10;;;;;;;12.71;29.74;98797.61;223403;184;138755;-69
2023/04/26 15:18:00;;;;;;;6.20;1.30;;;;;;;12.56;30.09;98808.52;223393;183;137666;-70
2023/04/26 15:23:04;;;;;;;4.10;1.20;;;;;;;12.40;31.06;98815.05;223668;184;147901;-70
2023/04/26 15:28:08;;;;;;;5.10;1.10;;;;;;;12.38;31.60;98815.17;223510;184;138776;-68
2023/04/26 15:33:15;;;;;;;6.00;1.40;;;;;;;12.37;31.38;98810.49;223543;184;137369;-71
2023/04/26 15:38:20;;;;;;;4.40;1.30;;;;;;;12.24;30.69;98816.52;223249;183;147466;-73
2023/04/26 15:43:23;;;;;;;8.10;1.20;;;;;;;12.08;31.37;98827.66;223552;183;138256;-70
2023/04/26 15:48:26;;;;;;;5.00;1.30;;;;;;;11.86;32.69;98841.09;223423;183;137278;-70
2023/04/26 15:53:30;;;;;;;4.10;1.40;;;;;;;11.73;33.34;98849.88;223576;184;147660;-71
2023/04/26 15:58:35;;;;;;;3.70;1.00;;;;;;;11.59;33.35;98852.80;223509;184;138313;-71
2023/04/26 16:03:43;;;;;;;4.20;1.30;;;;;;;11.61;33.54;98854.95;223531;183;138706;-71
2023/04/26 16:08:50;;;;;;;4.10;1.50;;;;;;;12.03;33.37;98845.45;223580;184;147401;-71
2023/04/26 16:13:53;;;;;;;4.60;1.50;;;;;;;12.48;32.79;98843.10;223519;184;138876;-71
2023/04/26 16:18:57;;;;;;;5.90;1.40;;;;;;;13.01;31.93;98838.27;223596;184;136776;-69
2023/04/26 16:24:07;;;;;;;9.30;5.20;;;;;;;13.01;31.53;98838.11;223290;184;147729;-70
2023/04/26 16:29:12;;;;;;;7.30;1.60;;;;;;;12.73;31.64;98837.55;223707;184;138293;-70
2023/04/26 16:34:15;;;;;;;4.90;1.60;;;;;;;12.51;32.22;98845.17;223661;183;137506;-69
2023/04/26 16:39:19;;;;;;;5.30;1.40;;;;;;;12.32;32.45;98845.66;223470;184;148139;-69
2023/04/26 16:44:25;;;;;;;12.50;3.40;;;;;;;12.21;33.10;98852.20;223507;184;138792;-69
2023/04/26 16:49:29;;;;;;;4.50;1.30;;;;;;;12.06;33.73;98862.63;223618;184;136736;-69
2023/04/26 16:54:32;;;;;;;5.60;1.60;;;;;;;11.88;34.06;98873.04;223513;184;147876;-70
2023/04/26 16:59:36;;;;;;;3.70;1.50;;;;;;;11.69;35.06;98893.48;223577;184;138388;-69
2023/04/26 17:04:40;;;;;;;5.60;1.40;;;;;;;11.43;36.70;98892.41;223511;184;136690;-69
2023/04/26 17:09:44;;;;;;;5.70;1.70;;;;;;;11.11;37.59;98900.45;223467;184;149471;-68
2023/04/26 17:14:47;;;;;;;4.90;1.50;;;;;;;10.95;37.26;98903.98;223430;184;139724;-67
2023/04/26 17:19:51;;;;;;;4.90;1.30;;;;;;;10.86;37.40;98902.59;223476;183;136829;-70
2023/04/26 17:24:54;;;;;;;4.00;1.50;;;;;;;10.80;37.52;98911.55;223565;184;148474;-70
2023/04/26 17:29:58;;;;;;;3.40;1.40;;;;;;;10.74;37.99;98915.27;223482;183;138391;-70
2023/04/26 17:35:01;;;;;;;5.00;1.50;;;;;;;10.75;38.02;98918.64;223622;183;136865;-71
2023/04/26 17:40:06;;;;;;;5.00;1.80;;;;;;;10.72;37.88;98919.16;223467;184;147287;-72
2023/04/26 17:45:11;;;;;;;6.20;1.80;;;;;;;10.67;38.16;98924.29;223418;184;139103;-69
2023/04/26 17:50:32;;;;;;;17.10;9.40;;;;;;;10.62;39.51;98935.94;223326;183;136657;-69
2023/04/26 17:55:36;;;;;;;6.80;2.30;;;;;;;10.59;39.20;98934.01;223021;183;148950;-73
2023/04/26 18:00:40;;;;;;;6.60;3.20;;;;;;;10.49;39.28;98944.92;223386;181;139450;-69
2023/04/26 18:05:43;;;;;;;4.80;2.10;;;;;;;10.47;39.56;98951.77;223490;181;136821;-69
2023/04/26 18:10:47;;;;;;;7.50;1.70;;;;;;;10.44;39.78;98953.92;223403;184;148192;-67
2023/04/26 18:15:53;;;;;;;5.80;2.00;;;;;;;10.42;40.00;98957.62;223588;185;140149;-67
2023/04/26 18:20:56;;;;;;;7.30;2.00;;;;;;;10.38;40.31;98962.81;223428;184;137802;-70
2023/04/26 18:25:59;;;;;;;5.80;1.90;;;;;;;10.38;40.20;98970.98;223591;183;147257;-71
2023/04/26 18:31:03;;;;;;;5.80;2.00;;;;;;;10.38;40.30;98971.12;223399;184;140222;-68
2023/04/26 18:36:07;;;;;;;7.10;2.00;;;;;;;10.33;40.68;98977.64;223468;183;137772;-68
2023/04/26 18:41:10;;;;;;;14.80;2.50;;;;;;;10.23;41.26;98986.40;223448;184;147340;-70
2023/04/26 18:46:14;;;;;;;11.10;3.10;;;;;;;10.16;41.75;98991.47;223458;184;138405;-68
2023/04/26 18:51:17;;;;;;;12.10;3.20;;;;;;;10.08;42.00;98994.39;223395;184;137374;-69
2023/04/26 18:56:21;;;;;;;107.50;67.60;;;;;;;10.06;43.31;99000.88;223408;184;147903;-68
2023/04/26 19:01:24;;;;;;;11.90;4.60;;;;;;;10.25;41.95;99001.73;223534;183;138695;-68
2023/04/26 19:06:28;;;;;;;18.10;4.80;;;;;;;10.25;41.10;99004.56;223436;184;137409;-68
2023/04/26 19:11:31;;;;;;;12.10;4.60;;;;;;;10.21;41.16;99012.04;222511;184;147637;-70
2023/04/26 19:16:47;;;;;;;12.80;4.20;;;;;;;10.07;41.41;99017.52;223000;184;138879;-70
2023/04/26 19:21:51;;;;;;;12.90;4.10;;;;;;;9.99;41.50;99016.95;223488;184;137449;-70
2023/04/26 19:26:54;;;;;;;11.30;3.80;;;;;;;9.94;41.68;99020.21;223384;184;147165;-70
2023/04/26 19:31:58;;;;;;;13.20;3.90;;;;;;;9.89;41.88;99025.13;223496;184;139036;-69
2023/04/26 19:37:02;;;;;;;278.70;190.80;;;;;;;9.88;43.19;99025.73;223480;184;137833;-70
2023/04/26 19:42:06;;;;;;;14.10;7.70;;;;;;;10.02;43.03;99027.54;223542;183;147333;-70
2023/04/26 19:47:09;;;;;;;12.30;4.60;;;;;;;9.96;42.43;99027.20;223423;184;139609;-69
2023/04/26 19:52:13;;;;;;;13.00;4.10;;;;;;;9.84;42.51;99026.35;223550;184;137717;-70
2023/04/26 19:57:17;;;;;;;13.40;4.30;;;;;;;9.77;42.71;99026.20;223411;184;147068;-70
2023/04/26 20:02:20;;;;;;;12.30;4.30;;;;;;;9.74;42.80;99028.73;223481;184;139657;-73
2023/04/26 20:07:25;;;;;;;11.10;5.70;;;;;;;9.76;43.31;99036.39;223421;184;137135;-69
2023/04/26 20:12:29;;;;;;;31.30;17.10;;;;;;;9.74;43.54;99039.67;223458;184;147085;-69
2023/04/26 20:17:33;;;;;;;12.80;5.10;;;;;;;9.71;43.33;99038.95;223590;184;138065;-69
2023/04/26 20:22:38;;;;;;;16.50;5.70;;;;;;;9.67;43.36;99040.08;223594;184;136687;-69
2023/04/26 20:27:41;;;;;;;12.00;5.00;;;;;;;9.57;43.50;99042.08;223589;184;147305;-70
2023/04/26 20:32:44;;;;;;;12.10;4.70;;;;;;;9.45;43.78;99044.70;223591;184;138307;-71
2023/04/26 20:37:48;;;;;;;15.20;5.40;;;;;;;9.35;44.28;99046.71;223546;184;137387;-68
2023/04/26 20:42:51;;;;;;;16.00;6.10;;;;;;;9.28;44.54;99046.75;223443;183;147205;-70
2023/04/26 20:47:55;;;;;;;15.00;6.60;;;;;;;9.23;44.68;99046.15;223537;184;141098;-70
2023/04/26 20:52:58;;;;;;;16.80;6.20;;;;;;;9.18;44.92;99051.19;223547;184;136915;-69
2023/04/26 20:58:02;;;;;;;13.60;6.20;;;;;;;9.15;45.04;99054.92;223473;184;146966;-69
2023/04/26 21:03:05;;;;;;;12.50;5.60;;;;;;;9.09;45.04;99056.17;223507;184;138856;-70
2023/04/26 21:08:10;;;;;;;14.10;6.30;;;;;;;8.97;45.15;99059.09;223454;184;137812;-70
2023/04/26 21:13:14;;;;;;;19.20;7.30;;;;;;;8.95;45.34;99063.81;223606;184;148794;-69
2023/04/26 21:18:17;;;;;;;17.90;7.40;;;;;;;8.96;45.51;99065.92;223518;184;139002;-70
2023/04/26 21:23:20;;;;;;;17.30;8.40;;;;;;;8.96;45.56;99067.27;220945;184;137699;-69
2023/04/26 21:28:24;;;;;;;21.10;7.70;;;;;;;8.92;45.59;99074.43;223598;184;146894;-69
2023/04/26 21:33:27;;;;;;;18.50;8.00;;;;;;;8.86;45.67;99074.77;223508;184;139591;-69
2023/04/26 21:38:31;;;;;;;18.10;7.90;;;;;;;8.80;46.00;99081.28;223396;184;137478;-68
2023/04/26 21:43:34;;;;;;;16.40;7.80;;;;;;;8.71;46.19;99082.97;223418;184;147067;-71
2023/04/26 21:48:40;;;;;;;16.60;7.70;;;;;;;8.67;46.34;99087.30;223477;184;138951;-70
2023/04/26 21:53:43;;;;;;;15.20;7.90;;;;;;;8.61;46.44;99093.08;223464;184;136352;-70
2023/04/26 21:58:47;;;;;;;16.30;6.20;;;;;;;8.55;46.57;99095.88;223485;184;147101;-70
2023/04/26 22:03:50;;;;;;;23.10;7.50;;;;;;;8.56;46.64;99101.69;223479;184;138965;-70
2023/04/26 22:08:54;;;;;;;19.70;7.00;;;;;;;8.56;46.62;99107.33;223508;183;136942;-70
2023/04/26 22:13:58;;;;;;;18.40;7.40;;;;;;;8.50;46.78;99110.63;223495;184;148644;-70
2023/04/26 22:19:01;;;;;;;18.70;6.80;;;;;;;8.40;47.04;99111.16;223562;183;138993;-68
2023/04/26 22:24:05;;;;;;;18.20;7.00;;;;;;;8.35;47.12;99116.37;223446;183;136762;-67
2023/04/26 22:29:09;;;;;;;23.90;7.70;;;;;;;8.27;47.40;99120.96;223555;184;147278;-69
2023/04/26 22:34:13;;;;;;;17.00;7.50;;;;;;;8.21;47.57;99125.35;223515;184;138747;-68
2023/04/26 22:39:16;;;;;;;18.50;7.10;;;;;;;8.12;47.78;99128.27;223438;184;136411;-67
2023/04/26 22:44:20;;;;;;;18.20;7.20;;;;;;;8.09;47.93;99134.64;223488;184;147737;-68
2023/04/26 22:49:27;;;;;;;15.30;7.10;;;;;;;8.03;47.98;99133.70;223434;184;139805;-69
2023/04/26 22:54:30;;;;;;;16.00;6.80;;;;;;;7.99;48.34;99136.73;223534;184;136905;-68
2023/04/26 22:59:34;;;;;;;16.60;6.90;;;;;;;7.91;48.60;99138.89;223484;184;147188;-68
2023/04/26 23:04:37;;;;;;;16.60;7.40;;;;;;;7.88;48.58;99140.61;223539;183;138443;-68
2023/04/26 23:09:41;;;;;;;16.40;6.90;;;;;;;7.87;48.87;99145.27;223507;183;136516;-68
2023/04/26 23:14:49;;;;;;;14.70;7.20;;;;;;;7.84;49.24;99147.55;223517;184;146899;-67
2023/04/26 23:19:53;;;;;;;16.60;7.20;;;;;;;7.80;49.09;99149.30;223467;184;139367;-68
2023/04/26 23:24:57;;;;;;;15.80;6.90;;;;;;;7.76;49.33;99154.26;223503;184;137097;-68
2023/04/26 23:36:20;;;;;;;16.70;6.90;;;;;;;7.70;49.43;99151.59;223621;183;138790;-69
2023/04/26 23:41:24;;;;;;;17.20;6.90;;;;;;;7.68;49.58;99153.60;223438;184;137687;-69